createdAt,value
2023-03-11T00:00:29.817Z,2.92
2023-03-11T00:01:01.465Z,3.90
2023-03-11T00:01:33.260Z,3.20
2023-03-11T00:02:04.984Z,3.40
2023-03-11T00:02:36.639Z,2.90
2023-03-11T00:03:09.281Z,3.05
2023-03-11T00:03:41.057Z,3.17
2023-03-11T00:04:13.244Z,3.00
2023-03-11T00:04:45.051Z,3.03
2023-03-11T00:05:18.661Z,3.72
2023-03-11T00:05:52.781Z,2.80
2023-03-11T00:06:24.355Z,3.38
2023-03-11T00:06:55.973Z,3.00
2023-03-11T00:07:27.588Z,3.28
2023-03-11T00:08:00.119Z,3.45
2023-03-11T00:08:31.936Z,3.53
2023-03-11T00:09:05.425Z,3.20
2023-03-11T00:09:37.551Z,3.40
2023-03-11T00:10:13.697Z,4.20
2023-03-11T00:10:47.773Z,3.00
2023-03-11T00:11:19.944Z,3.63
2023-03-11T00:11:51.578Z,6.97
2023-03-11T00:12:23.352Z,3.30
2023-03-11T00:12:55.299Z,3.50
2023-03-11T00:13:28.912Z,2.80
2023-03-11T00:14:00.613Z,3.85
2023-03-11T00:14:32.320Z,3.97
2023-03-11T00:15:04.123Z,3.80
2023-03-11T00:15:36.973Z,3.25
2023-03-11T00:16:09.757Z,3.00
2023-03-11T00:16:41.472Z,3.63
2023-03-11T00:17:13.488Z,3.22
2023-03-11T00:17:45.200Z,7.47
2023-03-11T00:18:17.621Z,4.00
2023-03-11T00:18:52.701Z,3.17
2023-03-11T00:19:24.349Z,3.22
2023-03-11T00:19:55.977Z,3.70
2023-03-11T00:20:35.780Z,4.45
2023-03-11T00:21:16.376Z,4.40
2023-03-11T00:21:48.301Z,3.20
2023-03-11T00:22:19.940Z,3.53
2023-03-11T00:22:52.103Z,5.22
2023-03-11T00:23:25.313Z,3.50
2023-03-11T00:24:01.169Z,3.25
2023-03-11T00:24:33.932Z,3.70
2023-03-11T00:25:05.767Z,3.22
2023-03-11T00:25:39.403Z,3.75
2023-03-11T00:26:11.039Z,3.10
2023-03-11T00:26:42.642Z,3.47
2023-03-11T00:27:14.207Z,3.03
2023-03-11T00:27:45.869Z,3.70
2023-03-11T00:28:19.235Z,3.10
2023-03-11T00:28:50.844Z,4.25
2023-03-11T00:29:22.513Z,4.03
2023-03-11T00:29:54.138Z,3.70
2023-03-11T00:30:26.605Z,3.60
2023-03-11T00:30:58.351Z,2.95
2023-03-11T00:31:30.292Z,2.92
2023-03-11T00:32:01.884Z,4.90
2023-03-11T00:32:33.597Z,3.72
2023-03-11T00:33:06.732Z,3.45
2023-03-11T00:33:38.898Z,4.28
2023-03-11T00:34:10.520Z,3.70
2023-03-11T00:34:42.166Z,4.20
2023-03-11T00:35:17.691Z,3.72
2023-03-11T00:35:50.426Z,3.00
2023-03-11T00:36:33.793Z,3.85
2023-03-11T00:37:05.502Z,4.70
2023-03-11T00:37:37.085Z,3.38
2023-03-11T00:38:13.146Z,3.10
2023-03-11T00:38:44.889Z,3.85
2023-03-11T00:39:16.696Z,3.72
2023-03-11T00:39:48.397Z,3.53
2023-03-11T00:40:21.497Z,3.30
2023-03-11T00:40:53.098Z,4.00
2023-03-11T00:41:25.354Z,4.15
2023-03-11T00:41:57.712Z,3.85
2023-03-11T00:42:29.295Z,4.00
2023-03-11T00:43:01.399Z,3.53
2023-03-11T00:43:33.382Z,3.40
2023-03-11T00:44:05.094Z,3.60
2023-03-11T00:44:36.944Z,3.30
2023-03-11T00:45:08.986Z,3.53
2023-03-11T00:45:40.734Z,4.38
2023-03-11T00:46:12.409Z,3.92
2023-03-11T00:46:43.989Z,4.13
2023-03-11T00:47:15.860Z,3.58
2023-03-11T00:47:47.578Z,3.80
2023-03-11T00:48:19.367Z,3.20
2023-03-11T00:48:51.917Z,4.00
2023-03-11T00:49:23.566Z,4.75
2023-03-11T00:49:55.204Z,3.70
2023-03-11T00:50:30.092Z,4.10
2023-03-11T00:51:01.829Z,4.90
2023-03-11T00:51:34.311Z,3.45
2023-03-11T00:52:06.340Z,3.20
2023-03-11T00:52:39.024Z,4.10
2023-03-11T00:53:10.769Z,3.10
2023-03-11T00:53:43.038Z,4.00
2023-03-11T00:54:14.996Z,4.18
2023-03-11T00:54:46.622Z,3.38
2023-03-11T00:55:22.632Z,4.20
2023-03-11T00:55:54.251Z,3.45
2023-03-11T00:56:25.947Z,3.88
2023-03-11T00:56:57.620Z,3.50
2023-03-11T00:57:29.321Z,4.68
2023-03-11T00:58:05.158Z,4.55
2023-03-11T00:58:37.031Z,3.63
2023-03-11T00:59:08.721Z,5.13
2023-03-11T00:59:40.379Z,3.72
2023-03-11T01:00:17.263Z,3.85
2023-03-11T01:00:49.090Z,3.45
2023-03-11T01:01:21.436Z,3.47
2023-03-11T01:01:53.094Z,3.28
2023-03-11T01:02:24.735Z,3.47
2023-03-11T01:02:57.308Z,4.30
2023-03-11T01:03:29.037Z,3.85
2023-03-11T01:04:00.661Z,3.88
2023-03-11T01:04:32.320Z,3.72
2023-03-11T01:05:05.650Z,3.67
2023-03-11T01:05:37.477Z,3.80
2023-03-11T01:06:09.476Z,6.70
2023-03-11T01:06:45.636Z,3.35
2023-03-11T01:07:17.624Z,3.17
2023-03-11T01:07:49.251Z,4.35
2023-03-11T01:08:21.072Z,5.32
2023-03-11T01:08:52.800Z,3.70
2023-03-11T01:09:24.390Z,3.65
2023-03-11T01:09:55.989Z,5.70
2023-03-11T01:10:29.710Z,4.55
2023-03-11T01:11:02.054Z,3.20
2023-03-11T01:11:33.620Z,3.78
2023-03-11T01:12:05.637Z,3.38
2023-03-11T01:12:37.546Z,4.20
2023-03-11T01:13:09.285Z,3.90
2023-03-11T01:13:40.975Z,4.20
2023-03-11T01:14:12.969Z,3.80
2023-03-11T01:14:44.611Z,4.97
2023-03-11T01:15:37.078Z,4.45
2023-03-11T01:16:09.454Z,4.05
2023-03-11T01:16:41.176Z,4.00
2023-03-11T01:17:12.903Z,4.95
2023-03-11T01:17:44.792Z,3.97
2023-03-11T01:18:16.496Z,4.60
2023-03-11T01:18:48.117Z,4.53
2023-03-11T01:19:20.086Z,5.47
2023-03-11T01:19:51.731Z,4.95
2023-03-11T01:20:23.688Z,4.10
2023-03-11T01:20:55.386Z,3.58
2023-03-11T01:21:27.107Z,4.75
2023-03-11T01:21:58.851Z,4.25
2023-03-11T01:22:30.439Z,5.05
2023-03-11T01:23:02.048Z,4.50
2023-03-11T01:23:33.710Z,3.85
2023-03-11T01:24:05.566Z,4.78
2023-03-11T01:24:37.232Z,4.28
2023-03-11T01:25:12.784Z,4.97
2023-03-11T01:25:44.749Z,4.55
2023-03-11T01:26:16.386Z,4.68
2023-03-11T01:26:48.131Z,3.95
2023-03-11T01:27:20.108Z,4.53
2023-03-11T01:27:51.783Z,3.60
2023-03-11T01:28:23.530Z,5.30
2023-03-11T01:28:55.279Z,3.95
2023-03-11T01:29:26.922Z,4.88
2023-03-11T01:29:58.708Z,3.75
2023-03-11T01:30:30.408Z,4.20
2023-03-11T01:31:02.156Z,3.75
2023-03-11T01:31:33.772Z,4.78
2023-03-11T01:32:06.894Z,3.78
2023-03-11T01:32:38.635Z,3.38
2023-03-11T01:33:15.796Z,3.10
2023-03-11T01:33:47.500Z,6.10
2023-03-11T01:34:19.247Z,4.53
2023-03-11T01:34:50.869Z,3.67
2023-03-11T01:35:24.615Z,4.95
2023-03-11T01:35:56.378Z,3.88
2023-03-11T01:36:28.064Z,4.25
2023-03-11T01:36:59.861Z,3.72
2023-03-11T01:37:31.622Z,5.47
2023-03-11T01:38:03.569Z,4.03
2023-03-11T01:38:35.254Z,3.80
2023-03-11T01:39:06.884Z,4.93
2023-03-11T01:39:38.525Z,4.47
2023-03-11T01:40:19.789Z,5.63
2023-03-11T01:40:52.318Z,3.40
2023-03-11T01:41:24.037Z,4.18
2023-03-11T01:41:56.328Z,4.35
2023-03-11T01:42:27.947Z,4.28
2023-03-11T01:43:00.971Z,4.25
2023-03-11T01:43:41.553Z,4.38
2023-03-11T01:44:13.490Z,5.25
2023-03-11T01:44:45.154Z,3.60
2023-03-11T01:45:37.366Z,5.10
2023-03-11T01:46:10.970Z,4.68
2023-03-11T01:46:54.840Z,3.67
2023-03-11T01:47:38.519Z,5.18
2023-03-11T01:48:10.755Z,4.18
2023-03-11T01:48:48.219Z,3.75
2023-03-11T01:49:21.410Z,4.47
2023-03-11T01:49:53.176Z,3.70
2023-03-11T01:50:27.087Z,3.90
2023-03-11T01:50:59.030Z,3.95
2023-03-11T01:51:37.377Z,4.53
2023-03-11T01:52:09.261Z,5.07
2023-03-11T01:52:41.632Z,4.22
2023-03-11T01:53:16.572Z,3.75
2023-03-11T01:53:48.638Z,4.68
2023-03-11T01:54:24.416Z,4.28
2023-03-11T01:54:56.508Z,4.80
2023-03-11T01:55:29.297Z,4.63
2023-03-11T01:56:03.561Z,3.90
2023-03-11T01:56:35.873Z,4.05
2023-03-11T01:57:12.724Z,3.33
2023-03-11T01:57:46.568Z,4.70
2023-03-11T01:58:23.421Z,4.00
2023-03-11T01:58:55.716Z,3.85
2023-03-11T01:59:34.359Z,3.85
2023-03-11T02:00:09.691Z,4.47
2023-03-11T02:00:42.394Z,4.13
2023-03-11T02:01:14.068Z,4.75
2023-03-11T02:01:55.365Z,5.50
2023-03-11T02:02:34.641Z,3.35
2023-03-11T02:03:14.346Z,4.95
2023-03-11T02:03:46.101Z,5.22
2023-03-11T02:04:20.089Z,4.15
2023-03-11T02:04:52.085Z,3.80
2023-03-11T02:05:24.808Z,4.55
2023-03-11T02:05:57.680Z,4.30
2023-03-11T02:06:29.606Z,4.63
2023-03-11T02:07:02.930Z,4.65
2023-03-11T02:07:34.741Z,4.00
2023-03-11T02:08:07.192Z,4.85
2023-03-11T02:08:40.978Z,4.03
2023-03-11T02:09:12.571Z,4.65
2023-03-11T02:09:44.606Z,4.57
2023-03-11T02:10:17.062Z,3.67
2023-03-11T02:10:51.910Z,4.70
2023-03-11T02:11:26.514Z,8.48
2023-03-11T02:11:58.850Z,3.90
2023-03-11T02:12:35.552Z,4.68
2023-03-11T02:13:07.361Z,3.50
2023-03-11T02:13:41.362Z,5.60
2023-03-11T02:14:13.115Z,4.20
2023-03-11T02:14:49.085Z,4.30
2023-03-11T02:15:20.970Z,3.90
2023-03-11T02:15:52.723Z,4.90
2023-03-11T02:16:24.586Z,3.83
2023-03-11T02:16:58.155Z,4.40
2023-03-11T02:17:31.730Z,4.18
2023-03-11T02:18:06.083Z,4.15
2023-03-11T02:18:38.034Z,5.25
2023-03-11T02:19:30.244Z,6.47
2023-03-11T02:20:01.894Z,3.90
2023-03-11T02:20:57.860Z,4.40
2023-03-11T02:21:32.052Z,4.45
2023-03-11T02:22:04.479Z,4.15
2023-03-11T02:22:36.763Z,3.50
2023-03-11T02:23:08.816Z,4.07
2023-03-11T02:24:02.955Z,3.85
2023-03-11T02:24:49.324Z,4.05
2023-03-11T02:25:43.136Z,5.25
2023-03-11T02:26:24.732Z,4.22
2023-03-11T02:27:07.027Z,5.25
2023-03-11T02:27:45.152Z,4.53
2023-03-11T02:28:19.096Z,4.22
2023-03-11T02:28:52.721Z,3.45
2023-03-11T02:29:26.680Z,4.45
2023-03-11T02:30:01.244Z,3.78
2023-03-11T02:30:34.756Z,3.97
2023-03-11T02:31:06.407Z,4.25
2023-03-11T02:31:42.914Z,3.20
2023-03-11T02:32:14.931Z,4.70
2023-03-11T02:32:49.976Z,4.32
2023-03-11T02:33:23.386Z,4.55
2023-03-11T02:33:57.995Z,4.47
2023-03-11T02:34:33.255Z,3.65
2023-03-11T02:35:05.867Z,3.50
2023-03-11T02:35:37.650Z,4.88
2023-03-11T02:36:32.334Z,3.88
2023-03-11T02:37:09.644Z,3.75
2023-03-11T02:37:50.300Z,4.38
2023-03-11T02:38:22.260Z,3.60
2023-03-11T02:38:53.839Z,3.67
2023-03-11T02:39:37.677Z,3.70
2023-03-11T02:40:24.553Z,5.40
2023-03-11T02:41:00.554Z,4.13
2023-03-11T02:41:35.134Z,4.55
2023-03-11T02:42:26.729Z,4.20
2023-03-11T02:43:01.662Z,5.80
2023-03-11T02:43:33.827Z,4.25
2023-03-11T02:44:09.060Z,4.90
2023-03-11T02:44:43.881Z,4.85
2023-03-11T02:45:18.478Z,4.03
2023-03-11T02:45:50.589Z,4.05
2023-03-11T02:46:22.267Z,5.97
2023-03-11T02:46:54.280Z,4.20
2023-03-11T02:47:26.868Z,5.05
2023-03-11T02:48:00.448Z,5.43
2023-03-11T02:48:32.175Z,4.10
2023-03-11T02:49:04.667Z,4.00
2023-03-11T02:49:37.043Z,4.40
2023-03-11T02:50:12.161Z,3.70
2023-03-11T02:50:46.858Z,4.45
2023-03-11T02:51:18.518Z,4.68
2023-03-11T02:51:50.124Z,4.65
2023-03-11T02:52:22.589Z,3.20
2023-03-11T02:52:54.408Z,4.13
2023-03-11T02:53:29.468Z,3.67
2023-03-11T02:54:05.255Z,4.30
2023-03-11T02:54:36.877Z,5.20
2023-03-11T02:55:11.996Z,4.25
2023-03-11T02:55:43.652Z,3.47
2023-03-11T02:56:15.700Z,3.65
2023-03-11T02:56:47.321Z,4.85
2023-03-11T02:57:19.070Z,3.47
2023-03-11T02:57:51.195Z,4.05
2023-03-11T02:58:22.931Z,4.15
2023-03-11T02:58:54.724Z,3.63
2023-03-11T02:59:26.355Z,3.42
2023-03-11T02:59:58.057Z,5.13
2023-03-11T03:00:29.686Z,4.43
2023-03-11T03:01:01.315Z,4.28
2023-03-11T03:01:33.105Z,3.88
2023-03-11T03:02:04.764Z,4.47
2023-03-11T03:02:37.208Z,4.63
2023-03-11T03:03:10.680Z,3.85
2023-03-11T03:03:42.631Z,4.35
2023-03-11T03:04:14.293Z,4.80
2023-03-11T03:04:46.166Z,4.28
2023-03-11T03:05:20.742Z,4.45
2023-03-11T03:05:52.516Z,4.75
2023-03-11T03:06:25.162Z,3.55
2023-03-11T03:06:56.763Z,4.32
2023-03-11T03:07:28.339Z,3.35
2023-03-11T03:08:00.083Z,5.07
2023-03-11T03:08:31.804Z,4.47
2023-03-11T03:09:04.221Z,4.50
2023-03-11T03:09:36.688Z,4.03
2023-03-11T03:10:09.144Z,4.90
2023-03-11T03:10:40.804Z,3.70
2023-03-11T03:11:12.729Z,3.33
2023-03-11T03:11:44.349Z,5.93
2023-03-11T03:12:15.950Z,4.95
2023-03-11T03:12:48.198Z,3.42
2023-03-11T03:13:19.957Z,3.88
2023-03-11T03:13:51.596Z,4.32
2023-03-11T03:14:23.336Z,5.00
2023-03-11T03:14:54.933Z,4.07
2023-03-11T03:15:26.646Z,4.57
2023-03-11T03:15:58.785Z,5.20
2023-03-11T03:16:30.539Z,4.15
2023-03-11T03:17:02.724Z,5.05
2023-03-11T03:17:34.713Z,4.55
2023-03-11T03:18:06.360Z,4.10
2023-03-11T03:18:37.994Z,4.28
2023-03-11T03:19:09.583Z,3.67
2023-03-11T03:19:41.192Z,5.30
2023-03-11T03:20:14.258Z,4.07
2023-03-11T03:20:45.944Z,4.30
2023-03-11T03:21:17.574Z,4.97
2023-03-11T03:21:49.665Z,5.15
2023-03-11T03:22:21.258Z,4.60
2023-03-11T03:22:53.320Z,3.78
2023-03-11T03:23:25.153Z,5.43
2023-03-11T03:23:57.035Z,4.22
2023-03-11T03:24:28.669Z,3.45
2023-03-11T03:25:00.248Z,5.22
2023-03-11T03:25:32.015Z,4.68
2023-03-11T03:26:04.996Z,5.03
2023-03-11T03:26:37.767Z,4.50
2023-03-11T03:27:09.419Z,4.72
2023-03-11T03:27:41.214Z,7.25
2023-03-11T03:28:13.778Z,3.90
2023-03-11T03:28:45.434Z,3.30
2023-03-11T03:29:17.044Z,4.90
2023-03-11T03:29:48.770Z,4.97
2023-03-11T03:30:20.495Z,3.83
2023-03-11T03:30:52.250Z,3.75
2023-03-11T03:31:24.101Z,4.45
2023-03-11T03:31:55.916Z,4.57
2023-03-11T03:32:27.992Z,4.35
2023-03-11T03:32:59.843Z,4.38
2023-03-11T03:33:32.351Z,4.75
2023-03-11T03:34:04.221Z,4.22
2023-03-11T03:34:35.824Z,5.05
2023-03-11T03:35:08.211Z,3.75
2023-03-11T03:35:45.361Z,3.30
2023-03-11T03:36:17.314Z,4.20
2023-03-11T03:36:48.945Z,4.28
2023-03-11T03:37:20.566Z,4.50
2023-03-11T03:37:52.354Z,4.53
2023-03-11T03:38:24.060Z,5.78
2023-03-11T03:38:56.635Z,3.80
2023-03-11T03:39:30.578Z,3.70
2023-03-11T03:40:08.038Z,3.75
2023-03-11T03:40:45.276Z,4.70
2023-03-11T03:41:17.095Z,3.38
2023-03-11T03:41:48.759Z,4.80
2023-03-11T03:42:20.729Z,3.20
2023-03-11T03:42:52.363Z,3.28
2023-03-11T03:43:24.096Z,3.65
2023-03-11T03:43:55.955Z,3.60
2023-03-11T03:44:27.979Z,4.28
2023-03-11T03:44:59.655Z,3.70
2023-03-11T03:45:31.713Z,3.35
2023-03-11T03:46:05.158Z,4.90
2023-03-11T03:46:39.028Z,3.60
2023-03-11T03:47:10.830Z,3.10
2023-03-11T03:47:42.448Z,4.28
2023-03-11T03:48:14.095Z,4.75
2023-03-11T03:48:45.776Z,3.40
2023-03-11T03:49:17.373Z,4.03
2023-03-11T03:49:49.016Z,4.55
2023-03-11T03:50:20.727Z,3.80
2023-03-11T03:50:52.473Z,3.28
2023-03-11T03:51:24.093Z,3.33
2023-03-11T03:51:55.757Z,3.90
2023-03-11T03:52:27.452Z,3.13
2023-03-11T03:52:59.119Z,3.20
2023-03-11T03:53:31.312Z,3.10
2023-03-11T03:54:03.250Z,3.83
2023-03-11T03:54:35.043Z,3.78
2023-03-11T03:55:07.316Z,3.60
2023-03-11T03:55:39.047Z,3.65
2023-03-11T03:56:13.057Z,4.60
2023-03-11T03:56:44.759Z,3.47
2023-03-11T03:57:16.693Z,4.00
2023-03-11T03:57:48.261Z,4.05
2023-03-11T03:58:19.974Z,3.58
2023-03-11T03:58:51.706Z,3.78
2023-03-11T03:59:23.394Z,3.75
2023-03-11T03:59:55.116Z,3.72
2023-03-11T04:00:26.773Z,3.50
2023-03-11T04:00:59.358Z,4.93
2023-03-11T04:01:31.059Z,3.20
2023-03-11T04:02:03.153Z,2.97
2023-03-11T04:02:35.011Z,4.07
2023-03-11T04:03:07.099Z,3.38
2023-03-11T04:03:39.723Z,4.40
2023-03-11T04:04:11.375Z,4.00
2023-03-11T04:04:43.007Z,3.10
2023-03-11T04:05:14.719Z,3.90
2023-03-11T04:05:46.435Z,4.65
2023-03-11T04:06:23.322Z,3.17
2023-03-11T04:06:55.063Z,4.45
2023-03-11T04:07:26.832Z,2.70
2023-03-11T04:07:58.830Z,3.78
2023-03-11T04:08:30.448Z,3.30
2023-03-11T04:09:02.210Z,3.70
2023-03-11T04:09:34.362Z,3.58
2023-03-11T04:10:06.680Z,3.47
2023-03-11T04:10:38.360Z,5.05
2023-03-11T04:11:09.987Z,3.70
2023-03-11T04:11:41.686Z,3.75
2023-03-11T04:12:15.010Z,4.53
2023-03-11T04:12:46.718Z,4.32
2023-03-11T04:13:18.333Z,4.80
2023-03-11T04:13:50.094Z,3.30
2023-03-11T04:14:21.718Z,3.38
2023-03-11T04:14:53.425Z,2.90
2023-03-11T04:15:26.159Z,3.90
2023-03-11T04:15:57.797Z,4.70
2023-03-11T04:16:29.708Z,3.75
2023-03-11T04:17:01.363Z,4.30
2023-03-11T04:17:32.964Z,3.22
2023-03-11T04:18:04.734Z,3.30
2023-03-11T04:18:36.319Z,3.78
2023-03-11T04:19:07.990Z,3.80
2023-03-11T04:19:39.890Z,9.40
2023-03-11T04:20:11.995Z,5.00
2023-03-11T04:20:43.621Z,4.35
2023-03-11T04:21:15.524Z,8.50
2023-03-11T04:21:47.162Z,4.80
2023-03-11T04:22:18.890Z,3.22
2023-03-11T04:22:50.547Z,6.47
2023-03-11T04:23:22.178Z,5.63
2023-03-11T04:23:53.772Z,8.07
2023-03-11T04:24:25.456Z,4.10
2023-03-11T04:24:57.092Z,6.93
2023-03-11T04:25:28.812Z,4.82
2023-03-11T04:26:00.523Z,4.65
2023-03-11T04:26:32.187Z,3.97
2023-03-11T04:27:03.923Z,4.05
2023-03-11T04:27:35.542Z,3.45
2023-03-11T04:28:07.497Z,7.65
2023-03-11T04:28:39.131Z,7.30
2023-03-11T04:29:10.780Z,7.85
2023-03-11T04:29:42.381Z,5.93
2023-03-11T04:30:14.176Z,5.93
2023-03-11T04:30:45.782Z,4.97
2023-03-11T04:31:17.659Z,6.07
2023-03-11T04:31:49.514Z,6.53
2023-03-11T04:32:23.123Z,10.60
2023-03-11T04:32:54.843Z,5.15
2023-03-11T04:33:26.513Z,10.23
2023-03-11T04:33:58.227Z,5.25
2023-03-11T04:34:29.843Z,3.10
2023-03-11T04:35:01.545Z,7.60
2023-03-11T04:35:33.362Z,5.00
2023-03-11T04:36:06.667Z,4.10
2023-03-11T04:36:39.598Z,8.63
2023-03-11T04:37:11.295Z,5.47
2023-03-11T04:37:42.903Z,4.78
2023-03-11T04:38:14.806Z,7.45
2023-03-11T04:38:46.816Z,5.70
2023-03-11T04:39:18.485Z,7.10
2023-03-11T04:39:51.013Z,7.30
2023-03-11T04:40:22.627Z,6.65
2023-03-11T04:40:54.316Z,12.68
2023-03-11T04:41:25.983Z,7.25
2023-03-11T04:41:57.679Z,7.22
2023-03-11T04:42:29.388Z,7.15
2023-03-11T04:43:01.061Z,7.90
2023-03-11T04:43:33.746Z,4.22
2023-03-11T04:44:05.643Z,8.02
2023-03-11T04:44:37.387Z,7.22
2023-03-11T04:45:11.010Z,10.38
2023-03-11T04:45:43.058Z,17.10
2023-03-11T04:46:14.900Z,6.43
2023-03-11T04:46:46.617Z,8.80
2023-03-11T04:47:18.425Z,7.35
2023-03-11T04:47:51.741Z,10.98
2023-03-11T04:48:24.802Z,13.30
2023-03-11T04:48:56.381Z,9.95
2023-03-11T04:49:28.103Z,11.00
2023-03-11T04:49:59.792Z,6.32
2023-03-11T04:50:31.441Z,7.57
2023-03-11T04:51:03.301Z,10.95
2023-03-11T04:51:34.944Z,8.52
2023-03-11T04:52:06.662Z,5.95
2023-03-11T04:52:38.355Z,6.00
2023-03-11T04:53:10.080Z,6.93
2023-03-11T04:53:41.811Z,8.20
2023-03-11T04:54:13.462Z,9.98
2023-03-11T04:54:45.034Z,8.00
2023-03-11T04:55:17.024Z,10.40
2023-03-11T04:55:48.762Z,12.85
2023-03-11T04:56:20.503Z,6.25
2023-03-11T04:56:52.261Z,12.60
2023-03-11T04:57:24.086Z,8.85
2023-03-11T04:57:55.875Z,6.75
2023-03-11T04:58:27.478Z,12.38
2023-03-11T04:58:59.170Z,5.82
2023-03-11T04:59:30.760Z,7.03
2023-03-11T05:00:05.598Z,6.75
2023-03-11T05:00:37.243Z,10.80
2023-03-11T05:01:08.936Z,9.27
2023-03-11T05:01:40.675Z,7.13
2023-03-11T05:02:12.987Z,9.45
2023-03-11T05:02:44.739Z,8.43
2023-03-11T05:03:16.400Z,8.38
2023-03-11T05:03:48.125Z,9.02
2023-03-11T05:04:19.901Z,11.13
2023-03-11T05:04:51.568Z,5.78
2023-03-11T05:05:23.348Z,14.25
2023-03-11T05:05:56.834Z,8.38
2023-03-11T05:06:28.474Z,9.18
2023-03-11T05:07:00.298Z,6.97
2023-03-11T05:07:32.268Z,11.27
2023-03-11T05:08:04.320Z,10.02
2023-03-11T05:08:35.942Z,8.82
2023-03-11T05:09:07.876Z,8.52
2023-03-11T05:09:39.489Z,12.18
2023-03-11T05:10:11.748Z,10.90
2023-03-11T05:10:44.459Z,9.90
2023-03-11T05:11:16.137Z,13.13
2023-03-11T05:11:47.882Z,5.53
2023-03-11T05:12:19.556Z,9.88
2023-03-11T05:12:52.284Z,9.27
2023-03-11T05:13:23.918Z,10.25
2023-03-11T05:13:55.474Z,10.30
2023-03-11T05:14:27.122Z,7.45
2023-03-11T05:14:58.724Z,7.57
2023-03-11T05:15:31.570Z,6.88
2023-03-11T05:16:03.567Z,8.98
2023-03-11T05:16:35.796Z,8.55
2023-03-11T05:17:08.235Z,7.45
2023-03-11T05:17:39.969Z,7.97
2023-03-11T05:18:11.661Z,7.72
2023-03-11T05:18:43.252Z,8.50
2023-03-11T05:19:30.826Z,11.65
2023-03-11T05:20:02.505Z,9.43
2023-03-11T05:20:34.211Z,7.32
2023-03-11T05:21:05.841Z,8.55
2023-03-11T05:21:37.579Z,6.30
2023-03-11T05:22:09.454Z,12.95
2023-03-11T05:22:41.276Z,9.70
2023-03-11T05:23:12.917Z,5.22
2023-03-11T05:23:45.535Z,9.32
2023-03-11T05:24:17.120Z,11.23
2023-03-11T05:24:49.060Z,10.43
2023-03-11T05:25:20.767Z,10.38
2023-03-11T05:25:52.373Z,7.93
2023-03-11T05:26:24.013Z,8.63
2023-03-11T05:26:56.431Z,7.93
2023-03-11T05:27:28.494Z,7.45
2023-03-11T05:28:00.143Z,6.22
2023-03-11T05:28:31.724Z,6.97
2023-03-11T05:29:03.352Z,6.78
2023-03-11T05:29:34.966Z,5.15
2023-03-11T05:30:09.080Z,7.85
2023-03-11T05:30:40.977Z,7.45
2023-03-11T05:31:12.677Z,5.88
2023-03-11T05:31:44.675Z,6.18
2023-03-11T05:32:16.890Z,4.28
2023-03-11T05:32:49.304Z,8.50
2023-03-11T05:33:20.996Z,7.20
2023-03-11T05:33:52.610Z,7.90
2023-03-11T05:34:24.678Z,4.10
2023-03-11T05:34:56.268Z,9.07
2023-03-11T05:35:27.972Z,5.07
2023-03-11T05:36:07.066Z,7.68
2023-03-11T05:36:38.772Z,11.05
2023-03-11T05:37:10.840Z,3.50
2023-03-11T05:37:42.493Z,5.18
2023-03-11T05:38:14.620Z,6.32
2023-03-11T05:38:46.239Z,7.03
2023-03-11T05:39:17.858Z,5.35
2023-03-11T05:39:49.562Z,6.03
2023-03-11T05:40:21.841Z,7.13
2023-03-11T05:40:53.704Z,8.05
2023-03-11T05:41:25.453Z,6.55
2023-03-11T05:41:57.120Z,4.10
2023-03-11T05:42:28.727Z,6.72
2023-03-11T05:43:00.333Z,5.55
2023-03-11T05:43:31.990Z,6.80
2023-03-11T05:44:04.701Z,3.80
2023-03-11T05:44:36.373Z,5.05
2023-03-11T05:45:09.170Z,4.80
2023-03-11T05:45:40.935Z,5.85
2023-03-11T05:46:12.841Z,4.75
2023-03-11T05:46:44.556Z,6.22
2023-03-11T05:47:19.678Z,4.47
2023-03-11T05:47:52.447Z,4.07
2023-03-11T05:48:24.108Z,4.25
2023-03-11T05:48:55.975Z,4.50
2023-03-11T05:49:27.655Z,4.25
2023-03-11T05:49:59.354Z,4.82
2023-03-11T05:50:31.040Z,6.20
2023-03-11T05:51:10.198Z,5.18
2023-03-11T05:51:41.846Z,3.70
2023-03-11T05:52:13.449Z,7.10
2023-03-11T05:52:45.077Z,4.00
2023-03-11T05:53:16.751Z,4.50
2023-03-11T05:53:49.353Z,5.70
2023-03-11T05:54:21.256Z,5.20
2023-03-11T05:54:52.895Z,3.92
2023-03-11T05:55:24.513Z,7.53
2023-03-11T05:56:00.919Z,5.15
2023-03-11T05:56:32.549Z,4.15
2023-03-11T05:57:04.794Z,6.93
2023-03-11T05:57:36.375Z,5.43
2023-03-11T05:58:08.040Z,5.60
2023-03-11T05:58:39.765Z,3.72
2023-03-11T05:59:16.664Z,3.88
2023-03-11T05:59:48.368Z,4.03
2023-03-11T06:00:20.647Z,4.53
2023-03-11T06:00:52.232Z,4.88
2023-03-11T06:01:23.879Z,4.57
2023-03-11T06:01:55.607Z,4.10
2023-03-11T06:02:27.327Z,5.10
2023-03-11T06:02:58.895Z,4.63
2023-03-11T06:03:30.512Z,6.22
2023-03-11T06:04:02.298Z,4.68
2023-03-11T06:04:34.211Z,3.55
2023-03-11T06:05:08.529Z,4.15
2023-03-11T06:05:47.441Z,5.20
2023-03-11T06:06:19.308Z,5.55
2023-03-11T06:06:50.934Z,4.10
2023-03-11T06:07:22.496Z,5.15
2023-03-11T06:07:54.264Z,5.22
2023-03-11T06:08:25.873Z,4.53
2023-03-11T06:08:57.718Z,4.18
2023-03-11T06:09:29.697Z,6.20
2023-03-11T06:10:01.902Z,5.65
2023-03-11T06:10:33.562Z,5.55
2023-03-11T06:11:07.998Z,3.72
2023-03-11T06:11:39.662Z,5.97
2023-03-11T06:12:11.426Z,3.28
2023-03-11T06:12:43.122Z,4.10
2023-03-11T06:13:14.793Z,5.78
2023-03-11T06:13:46.976Z,4.15
2023-03-11T06:14:18.798Z,4.90
2023-03-11T06:14:50.598Z,4.47
2023-03-11T06:15:22.227Z,3.72
2023-03-11T06:15:53.971Z,4.75
2023-03-11T06:16:26.066Z,4.05
2023-03-11T06:16:59.152Z,4.07
2023-03-11T06:17:30.819Z,3.58
2023-03-11T06:18:03.258Z,5.10
2023-03-11T06:18:35.307Z,3.92
2023-03-11T06:19:07.087Z,3.80
2023-03-11T06:19:38.668Z,3.65
2023-03-11T06:20:10.867Z,4.43
2023-03-11T06:20:42.463Z,3.60
2023-03-11T06:21:22.059Z,3.50
2023-03-11T06:21:53.654Z,3.38
2023-03-11T06:22:25.233Z,3.40
2023-03-11T06:22:56.968Z,5.28
2023-03-11T06:23:29.268Z,3.70
2023-03-11T06:24:01.182Z,5.15
2023-03-11T06:24:33.102Z,3.88
2023-03-11T06:25:05.115Z,4.72
2023-03-11T06:25:36.710Z,3.90
2023-03-11T06:26:08.429Z,3.50
2023-03-11T06:26:40.301Z,3.85
2023-03-11T06:27:12.083Z,4.00
2023-03-11T06:27:44.763Z,3.80
2023-03-11T06:28:16.386Z,4.82
2023-03-11T06:28:48.893Z,3.80
2023-03-11T06:29:24.325Z,3.42
2023-03-11T06:29:55.991Z,3.72
2023-03-11T06:30:27.605Z,3.65
2023-03-11T06:31:09.793Z,3.60
2023-03-11T06:31:41.818Z,4.07
2023-03-11T06:32:13.606Z,4.38
2023-03-11T06:32:48.488Z,3.90
2023-03-11T06:33:20.100Z,3.45
2023-03-11T06:33:52.415Z,4.03
2023-03-11T06:34:24.059Z,4.82
2023-03-11T06:34:55.846Z,4.30
2023-03-11T06:35:27.615Z,3.65
2023-03-11T06:36:00.594Z,4.22
2023-03-11T06:36:33.287Z,4.28
2023-03-11T06:37:04.993Z,4.55
2023-03-11T06:37:37.504Z,3.55
2023-03-11T06:38:09.458Z,4.32
2023-03-11T06:38:41.681Z,3.90
2023-03-11T06:39:15.389Z,6.30
2023-03-11T06:39:47.297Z,9.05
2023-03-11T06:40:19.254Z,6.75
2023-03-11T06:40:50.984Z,6.90
2023-03-11T06:41:22.713Z,6.68
2023-03-11T06:41:54.500Z,5.07
2023-03-11T06:42:26.859Z,4.75
2023-03-11T06:42:58.492Z,3.40
2023-03-11T06:43:33.955Z,3.63
2023-03-11T06:44:05.682Z,4.30
2023-03-11T06:44:37.359Z,6.07
2023-03-11T06:45:09.299Z,8.95
2023-03-11T06:45:41.041Z,4.45
2023-03-11T06:46:16.712Z,3.38
2023-03-11T06:46:48.414Z,4.35
2023-03-11T06:47:20.062Z,3.25
2023-03-11T06:47:51.690Z,5.25
2023-03-11T06:48:23.914Z,4.57
2023-03-11T06:48:55.555Z,3.72
2023-03-11T06:49:27.281Z,8.35
2023-03-11T06:49:59.003Z,7.13
2023-03-11T06:50:30.685Z,4.25
2023-03-11T06:51:02.380Z,4.13
2023-03-11T06:51:34.383Z,3.50
2023-03-11T06:52:06.495Z,3.30
2023-03-11T06:52:38.117Z,3.40
2023-03-11T06:53:09.824Z,6.45
2023-03-11T06:53:41.580Z,3.10
2023-03-11T06:54:13.233Z,4.75
2023-03-11T06:54:45.473Z,4.53
2023-03-11T06:55:17.183Z,5.63
2023-03-11T06:56:02.261Z,4.28
2023-03-11T06:56:34.048Z,5.45
2023-03-11T06:57:08.722Z,4.72
2023-03-11T06:57:40.369Z,3.80
2023-03-11T06:58:11.973Z,4.78
2023-03-11T06:58:43.779Z,4.60
2023-03-11T06:59:16.091Z,4.03
2023-03-11T06:59:47.883Z,5.47
2023-03-11T07:00:19.684Z,4.25
2023-03-11T07:00:51.375Z,4.00
2023-03-11T07:01:25.378Z,9.75
2023-03-11T07:01:57.197Z,4.13
2023-03-11T07:02:28.824Z,5.07
2023-03-11T07:03:00.433Z,4.40
2023-03-11T07:03:32.152Z,4.80
2023-03-11T07:04:03.927Z,4.15
2023-03-11T07:04:35.914Z,3.97
2023-03-11T07:05:07.906Z,5.47
2023-03-11T07:05:39.506Z,5.50
2023-03-11T07:06:13.767Z,5.40
2023-03-11T07:06:45.470Z,5.50
2023-03-11T07:07:17.529Z,4.55
2023-03-11T07:07:49.556Z,4.03
2023-03-11T07:08:21.198Z,5.60
2023-03-11T07:08:53.863Z,3.70
2023-03-11T07:09:25.929Z,4.13
2023-03-11T07:10:00.489Z,4.45
2023-03-11T07:10:32.123Z,5.25
2023-03-11T07:11:04.733Z,4.80
2023-03-11T07:11:36.519Z,5.80
2023-03-11T07:12:08.777Z,8.25
2023-03-11T07:12:40.426Z,4.22
2023-03-11T07:13:12.489Z,6.13
2023-03-11T07:13:44.793Z,4.97
2023-03-11T07:14:16.629Z,5.57
2023-03-11T07:14:48.331Z,4.22
2023-03-11T07:15:20.224Z,5.28
2023-03-11T07:16:02.346Z,4.60